Time;durP1;ratioP1;P1;durP2;ratioP2;P2;SDS_P1;SDS_P2;PMS_P1;PMS_P2;Temp;Humidity;BMP_temperature;BMP_pressure;BME280_temperature;BME280_humidity;BME280_pressure;Samples;Min_cycle;Max_cycle;Signal;HPM_P1;HPM_P2
2022/08/21 04:22:36;;;;;;;3.50;2.15;;;;;;;12.99;92.45;100312.22;5109148;27;20365;-66
2022/08/21 04:25:02;;;;;;;5.13;2.83;;;;;;;13.02;92.48;100319.88;5109170;28;20036;-65
2022/08/21 04:27:27;;;;;;;4.13;2.25;;;;;;;13.05;92.30;100316.84;5109089;28;20594;-63
2022/08/21 04:29:53;;;;;;;2.42;1.65;;;;;;;13.00;92.92;100324.59;5108705;28;20120;-65
2022/08/21 04:32:25;;;;;;;5.32;3.28;;;;;;;12.94;92.44;100317.31;5109532;28;20036;-68
2022/08/21 04:34:58;;;;;;;2.75;2.00;;;;;;;12.94;93.07;100314.63;5109083;28;20420;-68
2022/08/21 04:37:24;;;;;;;5.13;2.72;;;;;;;13.00;93.15;100322.75;5108873;28;20036;-68
2022/08/21 04:39:49;;;;;;;7.00;3.42;;;;;;;12.94;93.91;100320.81;5108626;28;20188;-69
2022/08/21 04:42:15;;;;;;;3.88;2.67;;;;;;;13.00;94.25;100328.09;5108762;28;20048;-68
2022/08/21 04:44:41;;;;;;;3.00;2.00;;;;;;;12.83;95.15;100325.78;5107259;28;20050;-67
2022/08/21 04:47:06;;;;;;;5.28;2.50;;;;;;;12.93;95.04;100326.34;5091027;28;20050;-66
2022/08/21 04:49:32;;;;;;;3.65;2.47;;;;;;;12.86;95.04;100331.59;5088051;28;20131;-68
2022/08/21 04:51:59;;;;;;;8.20;3.00;;;;;;;12.92;95.17;100330.03;5088736;28;20048;-69
2022/08/21 04:54:24;;;;;;;5.78;2.67;;;;;;;12.84;95.76;100330.13;5088521;28;20044;-68
2022/08/21 04:56:59;;;;;;;3.78;2.60;;;;;;;12.94;95.22;100342.19;5088192;28;20036;-69
2022/08/21 04:59:31;;;;;;;4.50;2.25;;;;;;;12.86;95.94;100338.81;5088448;28;20035;-67
2022/08/21 05:01:57;;;;;;;3.85;2.47;;;;;;;12.91;95.29;100333.69;5088094;28;20039;-69
2022/08/21 05:04:26;;;;;;;6.28;3.90;;;;;;;12.97;95.02;100340.97;5088048;28;20095;-67
2022/08/21 05:06:56;;;;;;;8.48;3.75;;;;;;;12.98;95.01;100340.81;5087961;28;20032;-69
2022/08/21 05:09:23;;;;;;;4.80;2.55;;;;;;;13.03;94.62;100345.59;5087740;28;20036;-67
2022/08/21 05:11:49;;;;;;;8.50;4.40;;;;;;;13.07;95.08;100357.56;5086819;28;20512;-69
2022/08/21 05:14:15;;;;;;;8.95;4.40;;;;;;;13.12;95.53;100349.84;5087855;28;20358;-67
2022/08/21 05:16:41;;;;;;;8.38;2.95;;;;;;;13.16;95.11;100345.75;5087764;28;20481;-67
2022/08/21 05:19:08;;;;;;;8.43;3.08;;;;;;;13.19;94.35;100353.41;5087655;28;20113;-69
2022/08/21 05:21:35;;;;;;;6.10;2.50;;;;;;;13.24;93.92;100361.75;5087951;28;20032;-67
2022/08/21 05:24:00;;;;;;;4.33;2.33;;;;;;;13.28;93.13;100360.34;5087804;28;20389;-68
2022/08/21 05:26:26;;;;;;;9.88;3.20;;;;;;;13.37;93.47;100357.56;5087687;28;20050;-68
2022/08/21 05:28:51;;;;;;;3.70;2.60;;;;;;;13.49;92.97;100351.50;5087424;28;20040;-66
2022/08/21 05:31:17;;;;;;;6.13;3.00;;;;;;;13.61;92.79;100346.47;5086126;28;20068;-68
2022/08/21 05:33:43;;;;;;;4.72;2.17;;;;;;;13.72;92.08;100351.34;5075463;28;20032;-68
2022/08/21 05:36:08;;;;;;;4.07;2.60;;;;;;;13.81;92.20;100350.19;5072808;28;20040;-68
2022/08/21 05:38:34;;;;;;;3.63;2.45;;;;;;;13.93;91.67;100347.81;5074002;28;20127;-68
2022/08/21 05:40:59;;;;;;;4.25;2.83;;;;;;;14.03;90.76;100351.00;5073630;28;20029;-66
2022/08/21 05:43:25;;;;;;;3.88;2.40;;;;;;;14.17;89.76;100341.22;5073920;28;20062;-68
2022/08/21 05:45:50;;;;;;;5.97;3.03;;;;;;;14.27;89.78;100346.25;5073777;28;20396;-68
2022/08/21 05:48:19;;;;;;;4.88;2.60;;;;;;;14.37;87.68;100336.84;5073830;28;20028;-66
2022/08/21 05:50:46;;;;;;;4.70;2.58;;;;;;;14.44;87.89;100344.94;5073301;28;20040;-68
2022/08/21 05:53:13;;;;;;;3.22;2.30;;;;;;;14.49;88.12;100336.34;5073751;28;20082;-68
2022/08/21 05:55:40;;;;;;;3.85;2.35;;;;;;;14.59;88.22;100340.31;5073618;28;20040;-68
2022/08/21 05:58:06;;;;;;;4.40;2.83;;;;;;;14.71;88.40;100343.28;5073692;28;20082;-68
2022/08/21 06:00:32;;;;;;;6.70;2.63;;;;;;;14.77;87.14;100342.47;5073287;28;20033;-68
2022/08/21 06:02:57;;;;;;;6.60;2.55;;;;;;;14.87;86.67;100345.63;5073583;28;20028;-68
2022/08/21 06:05:23;;;;;;;6.10;2.38;;;;;;;14.95;86.17;100341.97;5072209;28;20044;-68
2022/08/21 06:07:49;;;;;;;4.53;2.15;;;;;;;15.02;85.85;100350.84;5072083;28;20538;-68
2022/08/21 06:10:14;;;;;;;3.80;2.30;;;;;;;15.10;85.39;100348.00;5073130;28;20040;-67
2022/08/21 06:12:40;;;;;;;3.75;1.90;;;;;;;15.18;85.16;100347.00;5072413;28;20043;-69
2022/08/21 06:15:06;;;;;;;5.22;2.38;;;;;;;15.24;85.12;100340.00;5072121;28;20416;-68
2022/08/21 06:17:31;;;;;;;5.35;2.90;;;;;;;15.34;85.03;100351.19;5071995;28;20047;-69
2022/08/21 06:19:56;;;;;;;17.10;7.88;;;;;;;15.41;84.66;100349.34;5072868;28;20043;-67
2022/08/21 06:22:22;;;;;;;7.30;3.55;;;;;;;15.51;84.54;100343.59;5073148;28;20028;-68
2022/08/21 06:24:47;;;;;;;11.93;5.35;;;;;;;15.64;83.63;100346.31;5073216;28;20501;-68
2022/08/21 06:27:13;;;;;;;5.70;2.50;;;;;;;15.73;83.19;100343.25;5072994;28;20045;-68
2022/08/21 06:29:38;;;;;;;4.63;2.97;;;;;;;15.86;83.07;100352.38;5072889;28;20036;-65
2022/08/21 06:32:07;;;;;;;6.40;2.72;;;;;;;15.99;81.22;100344.31;5074076;28;20072;-69
2022/08/21 06:34:36;;;;;;;4.95;2.58;;;;;;;16.12;80.29;100357.75;5074579;28;20040;-68
2022/08/21 06:37:01;;;;;;;5.75;2.92;;;;;;;16.21;79.85;100361.88;5071720;28;20048;-69
2022/08/21 06:39:26;;;;;;;4.93;2.55;;;;;;;16.37;78.85;100349.91;5072689;28;20044;-62
2022/08/21 06:41:52;;;;;;;4.10;2.17;;;;;;;16.48;77.64;100357.31;5071808;28;20048;-62
2022/08/21 06:44:18;;;;;;;4.53;2.55;;;;;;;16.57;77.56;100354.41;5070640;28;20443;-61
2022/08/21 06:46:44;;;;;;;4.85;2.40;;;;;;;16.70;76.69;100351.72;5072808;28;20051;-60
2022/08/21 06:49:09;;;;;;;3.50;2.45;;;;;;;16.94;75.79;100355.56;5071286;28;20037;-59
2022/08/21 06:51:34;;;;;;;3.42;2.42;;;;;;;16.99;75.74;100353.91;5072887;28;20037;-60
2022/08/21 06:54:00;;;;;;;3.47;2.42;;;;;;;17.15;74.40;100351.75;5072779;28;20441;-60
2022/08/21 06:56:25;;;;;;;4.57;2.72;;;;;;;17.33;72.53;100352.72;5072580;28;20079;-60
2022/08/21 06:58:51;;;;;;;5.55;2.10;;;;;;;17.41;72.20;100348.97;5072561;28;20041;-62
2022/08/21 07:01:24;;;;;;;3.15;1.85;;;;;;;17.52;72.16;100345.56;5072387;28;20024;-63
2022/08/21 07:03:50;;;;;;;9.30;2.60;;;;;;;17.75;71.52;100350.44;5072633;28;20032;-62
2022/08/21 07:06:15;;;;;;;3.60;2.03;;;;;;;17.78;71.35;100350.00;5072328;28;20119;-63
2022/08/21 07:08:41;;;;;;;7.18;2.30;;;;;;;17.95;71.00;100339.53;5072520;28;20410;-62
2022/08/21 07:11:18;;;;;;;4.25;2.13;;;;;;;18.01;70.37;100348.59;5072186;28;20382;-63
2022/08/21 07:13:44;;;;;;;4.63;2.40;;;;;;;18.03;70.75;100349.19;5072525;28;20033;-62
2022/08/21 07:16:10;;;;;;;3.60;2.28;;;;;;;18.21;70.45;100351.97;5072289;28;20040;-62
2022/08/21 07:18:35;;;;;;;7.03;2.30;;;;;;;18.25;69.25;100352.31;5072343;28;20037;-63
2022/08/21 07:21:03;;;;;;;3.42;2.15;;;;;;;18.29;69.79;100350.84;5072030;28;20047;-57
2022/08/21 07:23:32;;;;;;;3.25;1.83;;;;;;;18.35;69.88;100347.28;5072227;28;20040;-63
2022/08/21 07:25:59;;;;;;;5.32;2.15;;;;;;;18.43;69.78;100350.50;5072544;28;20033;-60
2022/08/21 07:28:24;;;;;;;5.90;2.20;;;;;;;18.51;69.65;100335.91;5072442;28;20032;-62
2022/08/21 07:30:53;;;;;;;5.03;2.15;;;;;;;18.74;68.33;100342.56;5071721;28;20117;-66
2022/08/21 07:33:18;;;;;;;4.45;2.50;;;;;;;18.75;67.68;100336.94;5072042;28;20064;-65
2022/08/21 07:35:44;;;;;;;5.13;2.28;;;;;;;18.90;67.77;100339.25;5072136;28;20495;-66
2022/08/21 07:38:09;;;;;;;3.70;2.10;;;;;;;19.01;67.10;100338.50;5071900;28;20131;-66
2022/08/21 07:40:35;;;;;;;6.60;2.00;;;;;;;19.09;67.01;100330.09;5071787;28;20397;-66
2022/08/21 07:43:00;;;;;;;3.00;1.90;;;;;;;19.20;66.11;100334.72;5071849;28;20068;-65
2022/08/21 07:45:26;;;;;;;9.90;4.53;;;;;;;19.29;66.93;100329.81;5071655;28;20106;-66
2022/08/21 07:47:51;;;;;;;8.25;2.50;;;;;;;19.45;65.21;100337.31;5071834;28;20401;-67
2022/08/21 07:50:18;;;;;;;3.05;2.08;;;;;;;19.50;65.28;100339.34;5071323;28;20043;-65
2022/08/21 07:52:43;;;;;;;2.47;1.75;;;;;;;19.69;64.17;100338.25;5071709;28;20102;-66
2022/08/21 07:55:12;;;;;;;3.70;1.80;;;;;;;19.69;64.28;100340.09;5071444;28;20486;-66
2022/08/21 07:57:38;;;;;;;5.22;2.05;;;;;;;19.72;64.15;100337.78;5071661;28;20044;-65
2022/08/21 08:00:07;;;;;;;6.93;2.22;;;;;;;19.84;63.17;100340.50;5071296;28;20569;-65
2022/08/21 08:02:38;;;;;;;4.25;2.30;;;;;;;19.94;63.47;100334.53;5070477;28;20111;-66
2022/08/21 08:05:07;;;;;;;2.88;2.08;;;;;;;20.15;62.42;100336.69;5071495;28;20044;-66
2022/08/21 08:07:33;;;;;;;2.67;1.90;;;;;;;20.22;60.97;100337.41;5071423;28;20047;-65
2022/08/21 08:09:58;;;;;;;2.70;1.85;;;;;;;20.31;61.59;100335.97;5071103;28;20120;-67
2022/08/21 08:12:29;;;;;;;5.93;2.35;;;;;;;20.35;61.60;100330.13;5071327;28;20123;-65
2022/08/21 08:14:56;;;;;;;6.70;3.03;;;;;;;20.46;61.04;100323.88;5071377;28;20108;-65
2022/08/21 08:17:23;;;;;;;5.05;2.10;;;;;;;20.55;61.54;100327.91;5071325;28;20036;-65
2022/08/21 08:19:49;;;;;;;3.67;2.20;;;;;;;20.68;60.73;100324.13;5070970;28;20044;-65
2022/08/21 08:22:20;;;;;;;6.50;2.20;;;;;;;20.99;59.68;100314.72;5071202;28;20660;-65
2022/08/21 08:24:48;;;;;;;2.70;1.70;;;;;;;21.05;57.85;100309.19;5071409;28;20111;-64
2022/08/21 08:27:14;;;;;;;3.97;2.00;;;;;;;21.17;58.42;100306.44;5071235;28;20492;-65
2022/08/21 08:29:39;;;;;;;3.40;2.00;;;;;;;21.25;57.77;100314.16;5070943;28;20488;-65
2022/08/21 08:32:07;;;;;;;3.72;1.85;;;;;;;21.33;57.38;100307.59;5071264;28;20056;-65
2022/08/21 08:34:32;;;;;;;;;;;;;;;21.48;56.53;100307.06;5071698;28;20059;-65
2022/08/21 08:36:58;;;;;;;4.90;2.50;;;;;;;21.57;56.60;100305.56;5071247;28;20373;-64
2022/08/21 08:39:24;;;;;;;6.45;1.80;;;;;;;21.59;56.51;100304.28;5070808;28;20047;-65
2022/08/21 08:42:03;;;;;;;2.05;1.83;;;;;;;21.83;54.48;100299.53;5071698;28;20389;-64
2022/08/21 08:44:29;;;;;;;2.40;1.70;;;;;;;21.77;54.04;100297.78;5071062;28;20059;-65
2022/08/21 08:46:57;;;;;;;3.20;1.73;;;;;;;21.83;53.98;100298.69;5069921;28;20037;-65
2022/08/21 08:49:42;;;;;;;5.35;1.95;;;;;;;21.93;54.23;100294.28;5070763;28;20128;-64
2022/08/21 08:52:43;;;;;;;3.67;2.05;;;;;;;22.06;53.11;100297.72;5071152;28;20033;-65
2022/08/21 08:55:20;;;;;;;4.50;1.88;;;;;;;22.18;53.16;100287.63;5057014;28;20055;-65
2022/08/21 08:57:48;;;;;;;2.85;1.65;;;;;;;22.29;52.86;100289.41;5071016;28;20032;-66
2022/08/21 09:00:17;;;;;;;2.70;1.75;;;;;;;22.47;51.31;100282.88;5070766;28;20123;-66
2022/08/21 09:02:45;;;;;;;2.85;1.50;;;;;;;22.52;50.79;100276.72;5071123;28;20387;-64
2022/08/21 09:05:17;;;;;;;;;;;;;;;22.65;50.41;100279.06;5071342;28;20085;-65
2022/08/21 09:08:09;;;;;;;3.15;1.70;;;;;;;22.78;50.20;100272.44;5071982;28;19919;-64
2022/08/21 09:10:57;;;;;;;3.03;1.98;;;;;;;23.08;49.53;100280.13;5074392;28;20029;-65
2022/08/21 09:13:57;;;;;;;4.05;1.90;;;;;;;23.03;48.99;100272.75;5074475;28;20040;-64
2022/08/21 09:16:23;;;;;;;2.88;1.58;;;;;;;23.23;48.80;100264.00;5065167;28;20059;-64
2022/08/21 09:19:30;;;;;;;3.08;1.77;;;;;;;23.53;48.30;100258.84;5074382;28;20036;-64
2022/08/21 09:22:21;;;;;;;3.53;1.65;;;;;;;23.68;47.76;100260.94;5054674;28;20040;-64
2022/08/21 09:25:07;;;;;;;5.22;1.70;;;;;;;24.09;47.70;100253.88;5074438;28;20032;-64
2022/08/21 09:27:34;;;;;;;3.30;1.90;;;;;;;24.27;45.94;100244.47;5074391;28;20032;-64
2022/08/21 09:29:59;;;;;;;3.13;1.75;;;;;;;24.49;45.71;100247.06;5073923;28;20055;-64
2022/08/21 09:32:28;;;;;;;4.38;2.40;;;;;;;24.55;43.91;100240.56;5074178;28;20040;-65
2022/08/21 09:35:19;;;;;;;2.50;1.70;;;;;;;24.69;43.81;100234.63;5074255;28;20063;-64
2022/08/21 09:38:23;;;;;;;3.55;1.80;;;;;;;24.74;43.19;100242.81;5074629;28;20040;-64
2022/08/21 09:40:57;;;;;;;2.60;1.63;;;;;;;24.79;43.19;100235.47;5073868;28;20034;-64
2022/08/21 09:43:25;;;;;;;4.55;1.77;;;;;;;25.23;42.52;100234.25;5074327;28;20047;-65
2022/08/21 09:46:02;;;;;;;3.08;2.22;;;;;;;25.53;41.48;100230.72;5074036;28;20109;-65
2022/08/21 09:48:29;;;;;;;2.53;1.55;;;;;;;25.71;41.41;100230.19;5074121;28;20119;-65
2022/08/21 09:51:13;;;;;;;2.88;1.55;;;;;;;26.21;39.91;100234.78;5073558;28;20051;-65
2022/08/21 09:53:44;;;;;;;2.13;1.55;;;;;;;26.64;39.99;100229.75;5074115;28;20115;-64
2022/08/21 09:59:55;;;;;;;2.50;1.35;;;;;;;27.14;37.71;100230.59;5031150;28;20046;-66
2022/08/21 10:02:32;;;;;;;1.95;1.70;;;;;;;27.62;37.07;100232.69;5031588;28;20030;-65
2022/08/21 10:05:22;;;;;;;2.40;1.53;;;;;;;27.74;37.11;100235.91;5054368;28;20047;-66
2022/08/21 10:07:48;;;;;;;2.72;1.80;;;;;;;28.48;36.23;100229.13;5073651;28;20177;-65
2022/08/21 10:10:18;;;;;;;2.80;1.70;;;;;;;28.91;35.42;100229.13;5073354;28;20123;-65
2022/08/21 10:13:05;;;;;;;2.30;1.50;;;;;;;28.79;34.34;100221.34;5073368;28;20033;-65
2022/08/21 10:16:04;;;;;;;2.33;1.58;;;;;;;29.34;34.24;100218.09;5073548;28;20145;-65
2022/08/21 10:18:35;;;;;;;2.40;1.40;;;;;;;29.67;33.72;100216.22;5073488;28;20033;-66
2022/08/21 10:21:13;;;;;;;1.88;1.35;;;;;;;29.98;33.13;100214.53;5073173;28;20099;-66
2022/08/21 10:24:10;;;;;;;3.92;1.70;;;;;;;29.70;32.81;100210.94;5073445;28;20040;-66
2022/08/21 10:27:03;;;;;;;3.97;1.58;;;;;;;30.46;31.98;100205.94;5061682;28;20056;-66
2022/08/21 10:29:51;;;;;;;2.22;1.52;;;;;;;30.81;31.64;100206.31;5072994;28;20473;-66
2022/08/21 10:32:20;;;;;;;2.83;1.63;;;;;;;31.27;30.66;100197.84;5095775;22;20448;-61
2022/08/21 10:35:13;;;;;;;2.97;1.40;;;;;;;31.12;30.01;100197.38;5073221;28;20125;-61
2022/08/21 10:38:00;;;;;;;3.55;1.60;;;;;;;31.64;30.29;100203.28;5073258;28;20036;-58
2022/08/21 10:41:00;;;;;;;3.05;1.42;;;;;;;32.29;29.27;100203.44;5072991;28;20032;-61
2022/08/21 10:43:32;;;;;;;2.95;1.40;;;;;;;31.84;27.90;100200.81;5093384;28;20062;-62
2022/08/21 10:46:04;;;;;;;2.13;1.40;;;;;;;31.42;29.40;100190.31;5093512;28;20054;-64
2022/08/21 10:48:50;;;;;;;2.45;1.40;;;;;;;31.81;28.36;100186.88;5093495;28;20028;-59
2022/08/21 10:51:42;;;;;;;2.13;1.13;;;;;;;32.47;27.27;100192.47;5092983;28;20044;-62
2022/08/21 10:54:35;;;;;;;1.67;1.17;;;;;;;32.69;28.02;100186.88;5093195;28;20040;-61
2022/08/21 10:57:11;;;;;;;2.92;1.50;;;;;;;32.55;28.59;100197.22;5093075;28;20119;-63
2022/08/21 10:59:47;;;;;;;2.22;1.27;;;;;;;32.85;27.82;100185.25;5092691;28;20075;-63
2022/08/21 11:02:36;;;;;;;3.00;1.30;;;;;;;32.74;27.15;100191.41;5092972;28;20039;-62
2022/08/21 11:05:25;;;;;;;2.42;1.15;;;;;;;32.93;26.80;100180.91;5092953;28;20036;-64
2022/08/21 11:08:13;;;;;;;3.90;1.60;;;;;;;32.74;26.56;100181.19;5092983;28;20032;-63
2022/08/21 11:10:47;;;;;;;2.92;1.25;;;;;;;32.12;26.96;100179.38;5092370;28;20040;-62
2022/08/21 11:13:30;;;;;;;1.50;1.10;;;;;;;33.04;28.30;100175.88;5092769;28;20126;-63
2022/08/21 11:16:18;;;;;;;1.20;1.10;;;;;;;32.65;27.29;100175.66;5091886;28;20032;-61
2022/08/21 11:18:50;;;;;;;1.83;1.00;;;;;;;33.52;26.35;100172.94;5086774;28;20051;-64
2022/08/21 11:21:34;;;;;;;2.08;1.40;;;;;;;33.74;25.78;100166.34;5092423;28;20032;-63
2022/08/21 11:24:03;;;;;;;1.60;1.00;;;;;;;33.38;26.13;100161.22;5092515;28;20035;-62
2022/08/21 11:26:43;;;;;;;2.45;1.23;;;;;;;33.58;26.44;100162.50;5092490;28;20032;-63
2022/08/21 11:29:26;;;;;;;1.60;1.23;;;;;;;33.02;26.10;100161.59;5092134;28;20414;-62
2022/08/21 11:32:07;;;;;;;1.88;1.30;;;;;;;32.81;26.67;100155.91;5091711;28;20030;-62
2022/08/21 11:34:42;;;;;;;2.72;1.50;;;;;;;33.11;25.82;100154.94;5092358;28;20044;-62
2022/08/21 11:37:42;;;;;;;2.33;1.20;;;;;;;33.57;25.31;100147.06;5092172;28;20047;-63
2022/08/21 11:40:30;;;;;;;2.78;1.10;;;;;;;33.43;26.52;100155.56;5090655;28;20119;-62
2022/08/21 11:43:26;;;;;;;2.70;1.20;;;;;;;33.97;24.84;100142.06;5092205;28;20370;-63
2022/08/21 11:45:55;;;;;;;1.63;1.00;;;;;;;33.43;25.78;100150.03;5092157;28;20106;-63
2022/08/21 11:48:26;;;;;;;1.30;1.00;;;;;;;34.07;25.41;100141.72;5092166;28;20085;-65
2022/08/21 11:50:54;;;;;;;1.88;1.20;;;;;;;34.14;24.64;100142.00;5091623;28;20114;-63
2022/08/21 11:53:29;;;;;;;2.58;1.27;;;;;;;34.65;26.74;100134.53;5091953;28;20043;-63
2022/08/21 11:56:23;;;;;;;1.20;1.00;;;;;;;34.33;23.78;100138.78;5091975;28;20374;-62
2022/08/21 11:58:53;;;;;;;2.03;1.20;;;;;;;34.42;25.16;100134.03;5090895;28;20099;-61
2022/08/21 12:01:27;;;;;;;1.55;1.02;;;;;;;35.16;24.03;100128.91;5090805;28;20032;-61
2022/08/21 12:03:59;;;;;;;0.82;0.80;;;;;;;34.95;23.63;100135.31;5091828;28;20044;-62
2022/08/21 12:06:40;;;;;;;2.13;1.17;;;;;;;35.06;23.96;100127.38;5091825;28;20035;-62
2022/08/21 12:09:27;;;;;;;2.45;1.38;;;;;;;35.44;23.19;100126.38;5091584;28;20085;-62
2022/08/21 12:12:23;;;;;;;2.15;0.95;;;;;;;35.83;23.17;100131.25;5091435;28;20119;-63
2022/08/21 12:14:50;;;;;;;1.50;1.10;;;;;;;36.03;22.87;100126.00;5083124;28;20033;-63
2022/08/21 12:17:21;;;;;;;1.63;1.00;;;;;;;36.05;22.22;100118.94;5071786;28;20044;-62
2022/08/21 12:20:02;;;;;;;2.30;1.30;;;;;;;36.32;21.63;100120.19;5071323;28;20048;-63
2022/08/21 12:22:39;;;;;;;1.08;0.93;;;;;;;36.24;21.83;100115.56;5071324;28;20105;-63
2022/08/21 12:25:15;;;;;;;1.83;1.20;;;;;;;36.19;21.31;100115.81;5071628;28;20040;-62
2022/08/21 12:27:51;;;;;;;2.45;1.13;;;;;;;36.24;20.77;100120.31;5071523;28;20043;-60
2022/08/21 12:30:25;;;;;;;1.92;1.13;;;;;;;36.28;21.12;100110.94;5071216;28;20039;-62
2022/08/21 12:33:25;;;;;;;1.50;1.00;;;;;;;36.43;20.94;100117.75;5071357;28;20045;-62
2022/08/21 12:36:01;;;;;;;0.90;0.80;;;;;;;36.81;21.55;100105.41;5047680;28;20044;-61
2022/08/21 12:38:29;;;;;;;1.73;0.98;;;;;;;36.98;19.99;100112.66;5071378;28;20085;-60
2022/08/21 12:41:05;;;;;;;3.20;1.88;;;;;;;36.59;21.05;100118.66;5071021;28;20036;-61
2022/08/21 12:43:39;;;;;;;2.50;1.40;;;;;;;36.92;19.91;100112.91;5073747;28;20512;-62
2022/08/21 12:46:05;;;;;;;1.20;0.90;;;;;;;36.92;20.73;100112.91;5075319;28;20028;-63
2022/08/21 12:48:56;;;;;;;2.22;1.30;;;;;;;36.80;20.67;100099.03;5075215;28;20366;-62
2022/08/21 12:51:25;;;;;;;1.33;0.85;;;;;;;37.06;19.73;100100.59;5074889;28;20032;-63
2022/08/21 12:53:54;;;;;;;1.70;1.00;;;;;;;36.71;20.37;100100.34;5075058;28;20044;-63
2022/08/21 12:56:24;;;;;;;2.08;1.20;;;;;;;36.53;21.19;100103.41;5075084;28;20047;-64
2022/08/21 12:58:54;;;;;;;1.45;0.95;;;;;;;36.15;19.62;100112.94;5075242;28;20064;-62
2022/08/21 13:01:27;;;;;;;1.63;1.00;;;;;;;36.20;19.84;100105.53;5074695;28;20037;-58
2022/08/21 13:03:55;;;;;;;2.13;1.30;;;;;;;36.04;20.48;100105.44;5074677;28;20074;-58
2022/08/21 13:06:22;;;;;;;2.13;1.00;;;;;;;35.97;20.37;100091.34;5074916;28;20036;-60
2022/08/21 13:08:58;;;;;;;2.72;1.25;;;;;;;35.40;20.85;100097.72;5074508;28;20048;-62
2022/08/21 13:11:25;;;;;;;2.42;1.00;;;;;;;35.54;20.94;100095.47;5074633;28;20035;-60
2022/08/21 13:13:53;;;;;;;0.77;0.77;;;;;;;36.14;20.65;100096.66;5074544;28;20378;-61
2022/08/21 13:16:27;;;;;;;2.08;1.10;;;;;;;36.40;20.56;100086.00;5074717;28;20042;-59
2022/08/21 13:18:56;;;;;;;1.27;0.95;;;;;;;36.27;20.22;100091.91;5074432;28;20028;-60
2022/08/21 13:21:21;;;;;;;1.30;1.00;;;;;;;36.65;20.05;100083.97;5074326;28;20064;-63
2022/08/21 13:23:46;;;;;;;2.63;0.87;;;;;;;36.83;20.49;100095.56;5073357;28;20056;-62
2022/08/21 13:26:19;;;;;;;1.10;1.00;;;;;;;36.95;20.02;100089.97;5074552;28;20040;-59
2022/08/21 13:28:47;;;;;;;1.10;1.00;;;;;;;37.15;19.40;100087.34;5073131;28;20040;-61
2022/08/21 13:31:20;;;;;;;2.30;0.98;;;;;;;37.53;19.76;100083.19;5056144;28;20032;-64
2022/08/21 13:33:45;;;;;;;3.65;2.33;;;;;;;37.12;19.33;100077.75;5074372;28;20175;-61
2022/08/21 13:36:16;;;;;;;2.13;1.20;;;;;;;37.33;18.91;100069.22;5074140;28;20115;-58
2022/08/21 13:38:44;;;;;;;1.80;1.00;;;;;;;37.08;19.37;100068.53;5074358;28;20112;-60
2022/08/21 13:41:15;;;;;;;1.23;1.00;;;;;;;36.91;20.51;100074.41;5074034;28;20039;-60
2022/08/21 13:43:45;;;;;;;1.63;1.15;;;;;;;35.81;20.75;100074.59;5083159;28;20041;-63
2022/08/21 13:46:14;;;;;;;8.00;6.53;;;;;;;35.96;21.60;100064.78;5085025;28;20111;-62
2022/08/21 13:48:41;;;;;;;2.20;1.55;;;;;;;34.95;22.10;100059.75;5084654;28;20044;-61
2022/08/21 13:51:07;;;;;;;2.17;1.40;;;;;;;34.49;23.77;100059.66;5082424;28;20056;-60
2022/08/21 13:53:44;;;;;;;1.75;1.00;;;;;;;34.56;22.17;100061.91;5084393;28;20051;-59
2022/08/21 13:56:29;;;;;;;1.98;1.27;;;;;;;33.26;24.26;100053.47;5082815;28;20393;-60
2022/08/21 13:58:56;;;;;;;1.42;1.10;;;;;;;33.14;23.91;100051.41;5081053;28;20032;-61
2022/08/21 14:01:28;;;;;;;1.80;0.90;;;;;;;33.02;23.13;100049.31;5083517;28;20046;-63
2022/08/21 14:04:01;;;;;;;2.40;1.52;;;;;;;32.27;24.78;100051.38;5084326;28;20042;-62
2022/08/21 14:06:32;;;;;;;1.27;1.10;;;;;;;31.32;24.58;100046.41;5080636;28;20036;-62
2022/08/21 14:09:03;;;;;;;2.20;1.42;;;;;;;31.26;25.56;100044.91;5084387;28;20508;-60
2022/08/21 14:11:35;;;;;;;1.15;1.00;;;;;;;31.05;25.56;100041.84;5080179;28;20028;-60
2022/08/21 14:14:05;;;;;;;2.22;1.10;;;;;;;31.29;25.55;100041.50;5083438;28;20033;-62
2022/08/21 14:17:00;;;;;;;1.63;1.30;;;;;;;31.14;26.01;100043.84;5082218;28;20468;-62
2022/08/21 14:19:34;;;;;;;2.20;1.17;;;;;;;31.26;26.51;100030.34;5083716;28;20452;-62
2022/08/21 14:22:00;;;;;;;1.75;1.20;;;;;;;30.90;26.96;100039.47;5083023;28;20032;-62
2022/08/21 14:24:29;;;;;;;2.20;0.82;;;;;;;30.84;26.86;100034.41;5082427;28;20040;-63
2022/08/21 14:27:04;;;;;;;2.08;1.00;;;;;;;30.64;27.53;100032.94;5083068;28;20057;-62
2022/08/21 14:29:35;;;;;;;1.77;0.98;;;;;;;30.62;27.44;100036.03;5083880;28;20038;-63
2022/08/21 14:32:09;;;;;;;1.77;1.10;;;;;;;30.18;27.39;100025.78;5081354;28;20155;-63
2022/08/21 14:34:35;;;;;;;2.17;1.10;;;;;;;29.79;28.20;100023.56;5082062;28;20086;-63
2022/08/21 14:37:00;;;;;;;1.65;1.10;;;;;;;30.18;27.57;100023.03;5082647;28;20024;-63
2022/08/21 14:39:26;;;;;;;2.15;1.30;;;;;;;30.30;27.23;100026.06;5082035;28;20089;-63
2022/08/21 14:41:52;;;;;;;1.10;0.90;;;;;;;30.14;26.80;100014.63;5081513;28;20036;-63
2022/08/21 14:44:18;;;;;;;2.20;1.13;;;;;;;30.24;27.72;100017.13;5082034;28;20043;-63
2022/08/21 14:46:44;;;;;;;3.27;1.47;;;;;;;30.08;27.66;100020.50;5081461;28;20880;-62
2022/08/21 14:49:11;;;;;;;1.48;1.27;;;;;;;30.09;27.35;100025.69;5082158;28;20368;-62
2022/08/21 14:51:38;;;;;;;2.07;1.30;;;;;;;30.12;27.09;100011.34;5080562;28;20028;-63
2022/08/21 14:54:05;;;;;;;4.25;1.20;;;;;;;29.88;26.79;100003.34;5080946;28;20064;-63
2022/08/21 14:56:31;;;;;;;1.48;1.10;;;;;;;30.03;28.26;100004.13;5079422;28;20093;-63
2022/08/21 14:59:02;;;;;;;1.58;0.90;;;;;;;30.01;27.58;99996.22;5081187;28;20040;-63
2022/08/21 15:01:28;;;;;;;3.38;1.38;;;;;;;30.06;27.63;100001.59;5081708;28;20425;-63
2022/08/21 15:03:54;;;;;;;2.78;1.63;;;;;;;29.99;26.60;99993.78;5080223;28;20032;-62
2022/08/21 15:06:20;;;;;;;1.92;1.08;;;;;;;29.85;27.69;100003.94;5081298;28;20058;-63
2022/08/21 15:08:47;;;;;;;2.50;1.30;;;;;;;29.59;27.56;99995.44;5081376;28;20028;-63
2022/08/21 15:11:17;;;;;;;1.90;1.10;;;;;;;29.34;27.39;99991.25;5078565;28;20514;-63
2022/08/21 15:13:43;;;;;;;1.90;1.10;;;;;;;29.17;27.66;99993.78;5081351;28;20282;-63
2022/08/21 15:16:10;;;;;;;1.23;1.10;;;;;;;28.80;27.50;99992.75;5081510;28;20044;-64
2022/08/21 15:18:35;;;;;;;1.88;1.20;;;;;;;28.92;28.05;99989.56;5080014;28;20036;-63
2022/08/21 15:21:01;;;;;;;1.60;1.02;;;;;;;29.00;28.22;99988.84;5079987;28;20024;-63
2022/08/21 15:23:26;;;;;;;1.30;1.13;;;;;;;28.92;28.00;99990.38;5081560;28;20537;-63
2022/08/21 15:25:53;;;;;;;1.70;1.00;;;;;;;29.02;27.84;99992.13;5079733;28;20082;-63
2022/08/21 15:28:20;;;;;;;1.33;1.07;;;;;;;29.14;27.92;99989.69;5092254;28;20388;-63
2022/08/21 15:30:46;;;;;;;2.55;1.25;;;;;;;29.14;27.81;99989.69;5091725;28;20048;-63
2022/08/21 15:33:12;;;;;;;1.10;0.93;;;;;;;29.11;28.12;99984.81;5092323;28;20093;-63
2022/08/21 15:35:39;;;;;;;2.72;1.20;;;;;;;29.08;27.47;99984.59;5092200;28;20042;-63
2022/08/21 15:38:04;;;;;;;1.15;1.00;;;;;;;29.02;27.76;99991.31;5092286;28;20082;-63
2022/08/21 15:40:30;;;;;;;1.65;0.98;;;;;;;29.06;27.41;99986.84;5091767;28;20044;-62
2022/08/21 15:43:03;;;;;;;1.70;1.20;;;;;;;29.09;27.61;99991.75;5092073;28;20040;-63
2022/08/21 15:45:30;;;;;;;1.42;1.10;;;;;;;29.08;27.59;99985.44;5092218;28;20123;-63
2022/08/21 15:47:55;;;;;;;2.15;1.50;;;;;;;29.16;27.86;99981.19;5092016;28;20447;-63
2022/08/21 15:50:22;;;;;;;2.30;1.30;;;;;;;29.12;27.94;99974.66;5091712;28;20172;-63
2022/08/21 15:52:48;;;;;;;2.15;1.30;;;;;;;29.10;27.73;99977.72;5090507;28;20465;-63
2022/08/21 15:55:13;;;;;;;2.45;1.25;;;;;;;29.03;27.41;99968.28;5091930;28;20040;-62
2022/08/21 15:57:44;;;;;;;1.40;0.98;;;;;;;29.06;27.07;99965.72;5091750;28;20319;-63
2022/08/21 16:00:17;;;;;;;2.95;1.38;;;;;;;28.97;26.94;99969.47;5091522;28;20036;-63
2022/08/21 16:02:48;;;;;;;1.75;1.08;;;;;;;29.01;27.32;99968.56;5091644;28;20036;-63
2022/08/21 16:05:16;;;;;;;2.35;1.40;;;;;;;29.01;27.12;99968.56;5092017;28;20525;-63
2022/08/21 16:07:43;;;;;;;3.40;1.60;;;;;;;28.91;27.16;99975.03;5091609;28;20036;-63
2022/08/21 16:10:09;;;;;;;2.38;1.50;;;;;;;28.85;26.98;99961.69;5091415;28;20036;-63
2022/08/21 16:12:39;;;;;;;1.77;1.15;;;;;;;28.80;27.30;99970.81;5091511;28;20055;-63